createdAt,value
2023-04-13T06:04:19.436Z,86.60
2023-04-13T06:06:47.510Z,86.70
2023-04-13T06:09:15.794Z,87.40
2023-04-13T06:11:43.598Z,87.40
2023-04-13T06:14:11.190Z,86.20
2023-04-13T06:16:38.751Z,86.20
2023-04-13T06:19:06.215Z,84.60
2023-04-13T06:21:33.705Z,83.70
2023-04-13T06:24:01.253Z,84.00
2023-04-13T06:26:29.338Z,83.30
2023-04-13T06:28:57.905Z,83.20
2023-04-13T06:31:28.019Z,82.30
2023-04-13T06:33:56.172Z,81.60
2023-04-13T06:36:24.108Z,81.30
2023-04-13T06:38:52.200Z,81.10
2023-04-13T06:41:19.755Z,80.90
2023-04-13T06:43:47.949Z,81.00
2023-04-13T06:46:15.921Z,81.20
2023-04-13T06:48:44.622Z,82.50
2023-04-13T06:51:12.778Z,81.30
2023-04-13T06:53:40.278Z,81.30
2023-04-13T06:56:08.661Z,82.60
2023-04-13T06:58:36.801Z,81.70
2023-04-13T07:01:04.927Z,80.60
2023-04-13T07:03:32.673Z,81.00
2023-04-13T07:06:00.191Z,79.80
2023-04-13T07:08:28.379Z,79.50
2023-04-13T07:10:58.126Z,79.30
2023-04-13T07:13:27.175Z,77.90
2023-04-13T07:15:54.686Z,79.40
2023-04-13T07:18:22.147Z,79.50
2023-04-13T07:20:49.640Z,78.90
2023-04-13T07:23:17.214Z,79.60
2023-04-13T07:25:44.817Z,79.50
2023-04-13T07:28:12.344Z,78.00
2023-04-13T07:30:45.475Z,78.50
2023-04-13T07:33:13.393Z,79.00
2023-04-13T07:35:41.395Z,78.10
2023-04-13T07:38:08.921Z,78.70
2023-04-13T07:40:36.753Z,76.90
2023-04-13T07:43:04.286Z,76.40
2023-04-13T07:45:32.044Z,77.00
2023-04-13T07:47:59.570Z,76.40
2023-04-13T07:50:27.612Z,75.50
2023-04-13T07:52:55.594Z,76.00
2023-04-13T07:55:23.228Z,76.00
2023-04-13T07:57:51.612Z,75.00
2023-04-13T08:00:21.198Z,75.00
2023-04-13T08:02:48.916Z,74.60
2023-04-13T08:05:16.954Z,75.10
2023-04-13T08:07:46.694Z,75.90
2023-04-13T08:10:15.362Z,74.70
2023-04-13T08:12:42.848Z,75.70
2023-04-13T08:15:10.800Z,75.20
2023-04-13T08:17:38.664Z,75.00
2023-04-13T08:20:08.386Z,75.10
2023-04-13T08:22:36.912Z,75.60
2023-04-13T08:25:07.235Z,74.70
2023-04-13T08:27:34.733Z,74.00
2023-04-13T08:30:03.260Z,75.20
2023-04-13T08:32:30.788Z,74.20
2023-04-13T08:34:58.408Z,73.50
2023-04-13T08:37:28.553Z,74.10
2023-04-13T08:39:59.722Z,74.50
2023-04-13T08:42:31.274Z,74.10
2023-04-13T08:45:02.103Z,74.30
2023-04-13T08:47:29.880Z,74.00
2023-04-13T08:50:02.826Z,74.50
2023-04-13T08:52:30.500Z,75.70
2023-04-13T08:54:59.424Z,74.70
2023-04-13T08:57:28.005Z,74.70
2023-04-13T08:59:59.031Z,74.20
2023-04-13T09:02:36.622Z,73.20
2023-04-13T09:05:16.669Z,73.90
2023-04-13T09:07:57.546Z,74.10
2023-04-13T09:10:27.003Z,74.60
2023-04-13T09:12:54.637Z,74.40
2023-04-13T09:15:23.023Z,73.80
2023-04-13T09:17:50.733Z,72.20
2023-04-13T09:20:23.813Z,72.10
2023-04-13T09:22:52.181Z,72.60
2023-04-13T09:25:28.560Z,72.80
2023-04-13T09:27:57.478Z,70.40
2023-04-13T09:30:27.470Z,71.90
2023-04-13T09:33:10.728Z,71.90
2023-04-13T09:35:38.689Z,70.10
2023-04-13T09:38:07.483Z,71.10
2023-04-13T09:40:38.442Z,72.00
2023-04-13T09:43:08.240Z,71.60
2023-04-13T09:45:46.490Z,71.70
2023-04-13T09:48:22.765Z,72.40
2023-04-13T09:51:07.218Z,73.50
2023-04-13T09:53:50.139Z,74.50
2023-04-13T09:56:17.907Z,76.90
2023-04-13T09:58:50.474Z,78.40
2023-04-13T10:01:18.506Z,79.10
2023-04-13T10:03:46.176Z,78.20
2023-04-13T10:06:14.481Z,78.80
2023-04-13T10:08:42.904Z,76.00
2023-04-13T10:11:15.409Z,75.70
2023-04-13T10:13:59.016Z,76.10
2023-04-13T10:17:07.696Z,75.50
2023-04-13T10:19:51.723Z,76.70
2023-04-13T10:22:22.946Z,76.40
2023-04-13T10:24:53.131Z,76.10
2023-04-13T10:27:23.652Z,76.50
2023-04-13T10:29:51.214Z,76.20
2023-04-13T10:32:28.987Z,75.00
2023-04-13T10:34:56.999Z,74.80
2023-04-13T10:37:28.893Z,74.70
2023-04-13T10:40:10.489Z,75.40
2023-04-13T10:42:53.243Z,75.90
2023-04-13T10:45:27.749Z,75.60
2023-04-13T10:47:58.714Z,75.20
2023-04-13T10:50:27.805Z,74.20
2023-04-13T10:53:07.811Z,73.40
2023-04-13T10:55:36.749Z,73.50
2023-04-13T10:58:17.468Z,72.80
2023-04-13T11:00:47.214Z,73.40
2023-04-13T11:03:16.790Z,73.00
2023-04-13T11:05:57.820Z,72.60
2023-04-13T11:08:26.715Z,71.30
2023-04-13T11:10:58.044Z,71.60
2023-04-13T11:13:26.813Z,72.00
2023-04-13T11:16:06.214Z,72.70
2023-04-13T11:18:33.947Z,71.50
2023-04-13T11:21:06.095Z,71.00
2023-04-13T11:23:36.363Z,69.60
2023-04-13T11:26:04.964Z,69.30
2023-04-13T11:28:47.156Z,70.90
2023-04-13T11:31:14.571Z,72.20
2023-04-13T11:33:44.574Z,71.70
2023-04-13T11:36:12.216Z,71.40
2023-04-13T11:38:42.296Z,68.10
2023-04-13T11:43:42.138Z,67.30
2023-04-13T11:46:13.764Z,66.20
2023-04-13T11:48:41.615Z,66.00
2023-04-13T11:51:11.542Z,64.00
2023-04-13T11:53:40.840Z,64.70
2023-04-13T11:56:09.147Z,65.10
2023-04-13T11:58:39.228Z,64.30
2023-04-13T12:01:14.496Z,65.10
2023-04-13T12:03:59.206Z,65.20
2023-04-13T12:06:41.120Z,65.30
2023-04-13T12:09:13.505Z,68.10
2023-04-13T12:11:49.785Z,69.00
2023-04-13T12:19:27.281Z,76.90
2023-04-13T12:21:57.596Z,81.90
2023-04-13T12:24:38.425Z,81.80
2023-04-13T12:29:43.049Z,82.60
2023-04-13T12:32:17.486Z,81.50
2023-04-13T12:34:45.091Z,83.30
2023-04-13T12:37:12.631Z,84.90
2023-04-13T12:39:41.742Z,85.50
2023-04-13T12:42:09.196Z,84.10
2023-04-13T12:44:36.864Z,85.70
2023-04-13T12:47:06.233Z,84.10
2023-04-13T12:49:33.793Z,82.20
2023-04-13T12:52:01.250Z,84.30
2023-04-13T12:54:30.877Z,83.70
2023-04-13T12:56:59.812Z,80.60
2023-04-13T12:59:27.263Z,80.20
2023-04-13T13:01:55.073Z,81.00
2023-04-13T13:04:22.647Z,78.20
2023-04-13T13:06:50.128Z,77.90
2023-04-13T13:09:17.906Z,78.80
2023-04-13T13:11:45.433Z,78.80
2023-04-13T13:14:12.865Z,76.40
2023-04-13T13:16:41.240Z,74.30
2023-04-13T13:19:08.747Z,76.40
2023-04-13T13:21:36.326Z,72.90
2023-04-13T13:24:06.827Z,70.60
2023-04-13T13:26:47.062Z,70.80
2023-04-13T13:29:24.145Z,71.60
2023-04-13T13:31:52.681Z,71.20
2023-04-13T13:34:20.693Z,68.60
2023-04-13T13:36:48.159Z,67.70
2023-04-13T13:39:18.588Z,65.30
2023-04-13T13:41:46.054Z,64.70
2023-04-13T13:44:13.535Z,65.80
2023-04-13T13:46:41.373Z,66.20
2023-04-13T13:49:08.888Z,68.10
2023-04-13T13:51:36.391Z,66.40
2023-04-13T13:54:03.982Z,65.90
2023-04-13T13:56:31.387Z,65.50
2023-04-13T13:58:59.398Z,65.40
2023-04-13T14:01:27.621Z,66.80
2023-04-13T14:03:55.474Z,68.40
2023-04-13T14:06:23.018Z,66.90
2023-04-13T14:08:50.454Z,67.30
2023-04-13T14:11:17.913Z,66.60
2023-04-13T14:13:45.639Z,65.90
2023-04-13T14:16:13.126Z,66.50
2023-04-13T14:18:40.988Z,67.80
2023-04-13T14:21:09.219Z,67.20
2023-04-13T14:23:37.677Z,67.30
2023-04-13T14:26:05.817Z,64.30
2023-04-13T14:28:33.648Z,64.80
2023-04-13T14:31:01.143Z,66.30
2023-04-13T14:33:28.691Z,65.90
2023-04-13T14:35:56.151Z,65.90
2023-04-13T14:38:23.860Z,67.50
2023-04-13T14:40:52.332Z,69.30
2023-04-13T14:43:19.770Z,70.80
2023-04-13T14:45:47.211Z,72.70
2023-04-13T14:48:15.520Z,73.60
2023-04-13T14:50:43.019Z,71.30
2023-04-13T14:53:10.550Z,70.50
2023-04-13T14:55:38.422Z,69.10
2023-04-13T14:58:05.843Z,67.30
2023-04-13T15:00:39.502Z,67.10
2023-04-13T15:03:13.152Z,68.30
2023-04-13T15:05:45.545Z,66.50
2023-04-13T15:08:15.854Z,57.90
2023-04-13T15:10:43.532Z,59.90
2023-04-13T15:13:11.894Z,58.30
2023-04-13T15:15:40.639Z,59.70
2023-04-13T15:18:09.159Z,61.20
2023-04-13T15:20:36.882Z,61.30
2023-04-13T15:23:04.575Z,62.00
2023-04-13T15:25:32.145Z,62.70
2023-04-13T15:28:00.078Z,61.90
2023-04-13T15:30:31.464Z,62.30
2023-04-13T15:33:04.458Z,62.20
2023-04-13T15:35:35.723Z,63.70
2023-04-13T15:38:03.417Z,63.70
2023-04-13T15:40:35.082Z,62.60
2023-04-13T15:43:04.339Z,63.40
2023-04-13T15:45:32.771Z,63.70
2023-04-13T15:48:01.273Z,63.40
2023-04-13T15:50:28.717Z,64.30
2023-04-13T15:52:57.198Z,64.70
2023-04-13T15:55:24.943Z,64.90
2023-04-13T15:57:53.973Z,64.60
2023-04-13T16:00:21.771Z,64.40
2023-04-13T16:02:49.373Z,64.90
2023-04-13T16:05:18.374Z,65.00
2023-04-13T16:07:45.859Z,65.20
2023-04-13T16:10:17.556Z,65.20
2023-04-13T16:12:45.570Z,66.20
2023-04-13T16:15:13.842Z,64.40
2023-04-13T16:17:43.993Z,63.90
2023-04-13T16:20:14.897Z,64.70
2023-04-13T16:22:48.537Z,65.10
2023-04-13T16:25:19.650Z,64.70
2023-04-13T16:27:50.722Z,65.30
2023-04-13T16:30:21.222Z,65.00
2023-04-13T16:32:50.048Z,66.00
2023-04-13T16:35:17.820Z,65.00
2023-04-13T16:37:45.368Z,64.30
2023-04-13T16:40:13.537Z,63.90
2023-04-13T16:42:42.413Z,64.30
2023-04-13T16:45:13.965Z,64.20
2023-04-13T16:47:42.448Z,62.90
2023-04-13T16:50:12.559Z,63.50
2023-04-13T16:52:40.720Z,63.50
2023-04-13T16:55:14.190Z,64.50
2023-04-13T16:57:43.419Z,65.60
2023-04-13T17:00:12.645Z,65.40
2023-04-13T17:02:43.191Z,64.10
2023-04-13T17:05:12.784Z,64.20
2023-04-13T17:07:43.906Z,64.00
2023-04-13T17:10:14.492Z,65.30
2023-04-13T17:12:42.060Z,65.10
2023-04-13T17:15:10.738Z,66.20
2023-04-13T17:17:38.639Z,65.00
2023-04-13T17:20:08.491Z,65.00
2023-04-13T17:22:36.207Z,64.40
2023-04-13T17:25:04.486Z,64.70
2023-04-13T17:27:31.904Z,64.20
2023-04-13T17:29:59.389Z,64.30
2023-04-13T17:32:27.483Z,65.80
2023-04-13T17:34:57.077Z,66.70
2023-04-13T17:37:24.679Z,66.10
2023-04-13T17:39:52.185Z,67.20
2023-04-13T17:42:19.661Z,67.20
2023-04-13T17:44:47.316Z,66.20
2023-04-13T17:47:14.961Z,66.00
2023-04-13T17:49:42.836Z,64.70
2023-04-13T17:52:10.349Z,64.90
2023-04-13T17:54:39.463Z,67.50
2023-04-13T17:57:07.793Z,69.30
2023-04-13T17:59:35.530Z,70.10
2023-04-13T18:02:03.058Z,70.60
2023-04-13T18:04:32.438Z,70.80
2023-04-13T18:07:00.252Z,71.50
2023-04-13T18:09:28.245Z,71.90
2023-04-13T18:11:55.782Z,72.90
2023-04-13T18:14:23.223Z,73.10
2023-04-13T18:16:50.884Z,73.80
2023-04-13T18:19:18.317Z,74.50
2023-04-13T18:21:45.858Z,75.10
2023-04-13T18:24:13.350Z,75.70
2023-04-13T18:26:41.646Z,76.50
2023-04-13T18:29:09.692Z,77.30
2023-04-13T18:31:37.230Z,77.00
2023-04-13T18:34:07.252Z,77.70
2023-04-13T18:36:34.768Z,77.50
2023-04-13T18:39:03.736Z,77.80
2023-04-13T18:41:32.033Z,78.40
2023-04-13T18:43:59.844Z,79.20
2023-04-13T18:46:27.884Z,79.30
2023-04-13T18:48:55.448Z,79.40
2023-04-13T18:51:22.942Z,79.70
2023-04-13T18:53:50.431Z,80.00
2023-04-13T18:56:17.892Z,80.00
2023-04-13T18:58:45.499Z,80.20
2023-04-13T19:01:20.513Z,80.30
2023-04-13T19:03:49.934Z,80.30
2023-04-13T19:06:18.767Z,80.30
2023-04-13T19:08:46.290Z,80.40
2023-04-13T19:11:16.183Z,80.70
2023-04-13T19:13:45.055Z,81.00
2023-04-13T19:16:13.999Z,81.20
2023-04-13T19:18:41.497Z,81.10
2023-04-13T19:21:09.082Z,81.40
2023-04-13T19:23:38.900Z,81.90
2023-04-13T19:26:08.553Z,82.10
2023-04-13T19:28:36.538Z,82.40
2023-04-13T19:31:04.035Z,82.70
2023-04-13T19:33:33.543Z,82.90
2023-04-13T19:36:01.278Z,83.10
2023-04-13T19:38:28.752Z,83.10
2023-04-13T19:40:57.829Z,83.50
2023-04-13T19:43:28.150Z,83.50
2023-04-13T19:45:56.349Z,83.50
2023-04-13T19:48:24.044Z,83.60
2023-04-13T19:50:51.514Z,84.00
2023-04-13T19:53:19.050Z,84.00
2023-04-13T19:55:46.718Z,84.10
2023-04-13T19:58:14.210Z,84.20
2023-04-13T20:00:42.331Z,84.30
2023-04-13T20:03:09.924Z,84.50
2023-04-13T20:05:38.381Z,84.90
2023-04-13T20:08:06.297Z,85.00
2023-04-13T20:10:33.849Z,84.80
2023-04-13T20:13:01.379Z,85.20
2023-04-13T20:15:32.984Z,85.50
2023-04-13T20:18:03.418Z,85.20
2023-04-13T20:20:32.458Z,85.40
2023-04-13T20:23:00.552Z,85.00
2023-04-13T20:25:28.225Z,84.70
2023-04-13T20:27:55.851Z,84.80
2023-04-13T20:30:23.602Z,84.80
2023-04-13T20:32:51.136Z,84.90
2023-04-13T20:35:18.950Z,85.30
2023-04-13T20:37:46.544Z,85.30
2023-04-13T20:40:14.167Z,85.10
2023-04-13T20:42:42.342Z,85.20
2023-04-13T20:45:14.677Z,85.00
2023-04-13T20:47:45.024Z,85.40
2023-04-13T20:50:18.849Z,85.30
2023-04-13T20:52:47.028Z,85.50
2023-04-13T20:55:14.687Z,85.60
2023-04-13T20:57:42.472Z,85.50
2023-04-13T21:00:16.508Z,86.40
2023-04-13T21:02:45.268Z,85.80
2023-04-13T21:05:13.820Z,85.90
2023-04-13T21:07:41.981Z,86.10
2023-04-13T21:10:11.318Z,86.00
2023-04-13T21:12:38.754Z,86.10
2023-04-13T21:15:07.376Z,86.30
2023-04-13T21:17:35.000Z,86.40
2023-04-13T21:20:02.495Z,86.10
2023-04-13T21:22:30.519Z,86.70
2023-04-13T21:24:57.961Z,86.90
2023-04-13T21:27:25.519Z,86.90
2023-04-13T21:29:53.003Z,86.80
2023-04-13T21:32:21.321Z,87.20
2023-04-13T21:34:48.850Z,87.40
2023-04-13T21:37:16.313Z,87.50
2023-04-13T21:39:43.737Z,87.60
2023-04-13T21:42:11.183Z,88.00
2023-04-13T21:44:38.665Z,87.70
2023-04-13T21:47:07.095Z,87.80
2023-04-13T21:49:34.575Z,87.90
2023-04-13T21:52:02.080Z,88.00
2023-04-13T21:54:29.507Z,88.30
2023-04-13T21:56:56.989Z,88.30
2023-04-13T21:59:27.391Z,88.10
2023-04-13T22:01:55.696Z,88.10
2023-04-13T22:04:23.594Z,88.10
2023-04-13T22:06:51.209Z,88.10
2023-04-13T22:09:18.989Z,88.00
2023-04-13T22:11:46.530Z,87.90
2023-04-13T22:14:13.994Z,88.20
2023-04-13T22:16:41.497Z,88.10
2023-04-13T22:19:09.646Z,88.40
2023-04-13T22:21:37.986Z,88.50
2023-04-13T22:24:05.960Z,88.50
2023-04-13T22:26:33.484Z,88.70
2023-04-13T22:29:01.180Z,88.70
2023-04-13T22:31:28.931Z,88.70
2023-04-13T22:33:57.411Z,88.50
2023-04-13T22:36:24.945Z,88.60
2023-04-13T22:38:52.851Z,88.80
2023-04-13T22:41:20.841Z,89.00
2023-04-13T22:43:48.296Z,89.60
